createdAt,value
2022-11-16T00:01:05.630Z,95.90
2022-11-16T00:04:07.221Z,96.20
2022-11-16T00:07:08.921Z,96.50
2022-11-16T00:10:11.515Z,96.00
2022-11-16T00:13:13.115Z,96.40
2022-11-16T00:16:17.406Z,96.30
2022-11-16T00:19:19.037Z,96.40
2022-11-16T00:22:20.539Z,96.30
2022-11-16T00:25:22.461Z,96.30
2022-11-16T00:28:24.063Z,96.30
2022-11-16T00:31:25.696Z,96.60
2022-11-16T00:34:27.387Z,96.30
2022-11-16T00:37:28.911Z,96.40
2022-11-16T00:40:30.474Z,96.40
2022-11-16T00:43:32.064Z,96.40
2022-11-16T00:46:33.650Z,96.50
2022-11-16T00:49:35.214Z,96.50
2022-11-16T00:52:36.731Z,96.50
2022-11-16T00:55:38.414Z,96.60
2022-11-16T00:58:39.920Z,96.60
2022-11-16T01:01:41.530Z,96.60
2022-11-16T01:04:43.120Z,98.70
2022-11-16T01:07:44.679Z,96.60
2022-11-16T01:10:46.213Z,96.70
2022-11-16T01:13:48.586Z,97.10
2022-11-16T01:16:50.723Z,96.60
2022-11-16T01:19:52.687Z,96.70
2022-11-16T01:22:54.675Z,96.60
2022-11-16T01:25:57.758Z,96.90
2022-11-16T01:28:59.664Z,96.90
2022-11-16T01:32:01.262Z,96.90
2022-11-16T01:35:03.771Z,97.00
2022-11-16T01:38:05.433Z,96.90
2022-11-16T01:41:07.054Z,97.30
2022-11-16T01:44:14.472Z,97.00
2022-11-16T01:47:17.454Z,97.20
2022-11-16T01:50:19.564Z,97.10
2022-11-16T01:53:21.767Z,97.10
2022-11-16T01:56:25.583Z,96.90
2022-11-16T01:59:27.641Z,97.20
2022-11-16T02:02:29.250Z,97.20
2022-11-16T02:05:40.190Z,97.20
2022-11-16T02:09:39.504Z,97.40
2022-11-16T02:12:55.028Z,96.60
2022-11-16T02:16:52.843Z,96.70
2022-11-16T02:20:25.863Z,96.80
2022-11-16T02:23:42.595Z,97.50
2022-11-16T02:27:10.791Z,96.60
2022-11-16T02:30:12.940Z,96.80
2022-11-16T02:33:19.428Z,97.30
2022-11-16T02:36:23.885Z,97.50
2022-11-16T02:39:29.361Z,97.80
2022-11-16T02:42:55.138Z,97.60
2022-11-16T02:46:02.221Z,96.90
2022-11-16T02:49:08.881Z,97.50
2022-11-16T02:52:13.393Z,97.60
2022-11-16T02:55:14.975Z,97.60
2022-11-16T02:58:21.273Z,97.70
2022-11-16T03:01:30.996Z,97.90
2022-11-16T03:04:49.637Z,97.80
2022-11-16T03:08:00.115Z,97.80
2022-11-16T03:11:24.092Z,97.80
2022-11-16T03:14:43.299Z,97.70
2022-11-16T03:17:47.841Z,97.20
2022-11-16T03:20:54.558Z,97.70
2022-11-16T03:23:56.579Z,97.80
2022-11-16T03:26:58.054Z,97.80
2022-11-16T03:30:12.479Z,97.80
2022-11-16T03:33:19.467Z,97.40
2022-11-16T03:36:25.310Z,97.30
2022-11-16T03:39:33.093Z,97.90
2022-11-16T03:42:35.571Z,98.00
2022-11-16T03:45:37.963Z,98.00
2022-11-16T03:48:40.242Z,97.90
2022-11-16T03:51:42.053Z,98.00
2022-11-16T03:54:43.874Z,97.90
2022-11-16T03:57:45.419Z,98.30
2022-11-16T04:00:47.049Z,97.90
2022-11-16T04:03:48.607Z,98.20
2022-11-16T04:07:08.913Z,98.20
2022-11-16T04:10:29.374Z,97.40
2022-11-16T04:13:51.791Z,97.70
2022-11-16T04:17:12.088Z,98.10
2022-11-16T04:20:33.477Z,97.50
2022-11-16T04:23:53.911Z,98.30
2022-11-16T04:27:18.931Z,97.60
2022-11-16T04:30:20.693Z,98.20
2022-11-16T04:33:40.890Z,98.20
2022-11-16T04:37:01.365Z,97.60
2022-11-16T04:40:04.244Z,97.60
2022-11-16T04:43:06.341Z,98.20
2022-11-16T04:46:26.727Z,98.40
2022-11-16T04:49:28.379Z,97.60
2022-11-16T04:52:29.986Z,98.90
2022-11-16T04:55:32.281Z,98.20
2022-11-16T04:58:34.087Z,98.40
2022-11-16T05:01:54.832Z,98.30
2022-11-16T05:04:56.394Z,99.90
2022-11-16T05:07:58.109Z,98.30
2022-11-16T05:10:59.711Z,98.50
2022-11-16T05:14:02.362Z,98.50
2022-11-16T05:17:04.020Z,98.50
2022-11-16T05:20:24.731Z,98.50
2022-11-16T05:23:45.177Z,98.10
2022-11-16T05:26:46.769Z,97.80
2022-11-16T05:29:51.541Z,98.60
2022-11-16T05:32:53.083Z,98.40
2022-11-16T05:35:54.593Z,98.40
2022-11-16T05:38:56.535Z,98.50
2022-11-16T05:41:58.185Z,98.60
2022-11-16T05:44:59.738Z,98.50
2022-11-16T05:48:01.294Z,98.70
2022-11-16T05:51:02.951Z,98.50
2022-11-16T05:54:05.661Z,98.60
2022-11-16T05:57:07.180Z,98.70
2022-11-16T06:00:09.514Z,98.60
2022-11-16T06:03:11.135Z,98.30
2022-11-16T06:06:12.915Z,98.70
2022-11-16T06:09:14.523Z,98.60
2022-11-16T06:12:16.289Z,98.60
2022-11-16T06:15:18.098Z,98.80
2022-11-16T06:18:19.856Z,98.80
2022-11-16T06:21:21.672Z,98.60
2022-11-16T06:24:23.258Z,98.60
2022-11-16T06:27:24.867Z,99.00
2022-11-16T06:30:26.510Z,99.20
2022-11-16T06:33:33.191Z,99.00
2022-11-16T06:36:35.227Z,99.30
2022-11-16T06:39:36.783Z,98.90
2022-11-16T06:42:38.425Z,99.20
2022-11-16T06:45:40.258Z,98.90
2022-11-16T06:48:41.862Z,98.80
2022-11-16T06:51:43.427Z,98.80
2022-11-16T06:54:44.949Z,99.00
2022-11-16T06:57:46.577Z,99.00
2022-11-16T07:00:48.151Z,99.20
2022-11-16T07:03:50.024Z,99.20
2022-11-16T07:06:52.492Z,99.70
2022-11-16T07:09:54.123Z,99.30
2022-11-16T07:12:55.794Z,99.30
2022-11-16T07:16:04.291Z,99.20
2022-11-16T07:19:06.077Z,98.60
2022-11-16T07:22:08.352Z,99.30
2022-11-16T07:25:09.991Z,99.30
2022-11-16T07:28:12.328Z,99.20
2022-11-16T07:31:15.217Z,99.20
2022-11-16T07:34:17.224Z,99.20
2022-11-16T07:37:18.766Z,98.90
2022-11-16T07:40:20.772Z,99.00
2022-11-16T07:43:22.458Z,99.00
2022-11-16T07:49:45.824Z,99.30
2022-11-16T07:52:47.439Z,98.80
2022-11-16T07:55:53.530Z,98.90
2022-11-16T07:58:55.067Z,98.80
2022-11-16T08:01:56.946Z,98.80
2022-11-16T08:04:58.559Z,98.90
2022-11-16T08:08:00.107Z,98.90
2022-11-16T08:11:03.651Z,99.00
2022-11-16T08:14:05.514Z,99.10
2022-11-16T08:17:08.266Z,99.00
2022-11-16T08:20:10.149Z,99.10
2022-11-16T08:23:11.771Z,99.20
2022-11-16T08:26:21.615Z,99.50
2022-11-16T08:29:23.168Z,99.30
2022-11-16T08:32:25.032Z,99.60
2022-11-16T08:35:26.605Z,99.50
2022-11-16T08:38:28.143Z,99.50
2022-11-16T08:41:29.720Z,99.50
2022-11-16T08:44:31.275Z,99.40
2022-11-16T08:47:32.909Z,99.40
2022-11-16T08:50:55.424Z,99.40
2022-11-16T08:53:57.833Z,99.30
2022-11-16T08:56:59.450Z,99.50
2022-11-16T09:00:00.977Z,99.10
2022-11-16T09:03:02.583Z,99.20
2022-11-16T09:06:05.905Z,99.20
2022-11-16T09:09:07.611Z,99.20
2022-11-16T09:12:09.256Z,99.10
2022-11-16T09:15:10.827Z,99.00
2022-11-16T09:18:12.386Z,99.10
2022-11-16T09:21:25.548Z,98.90
2022-11-16T09:24:27.130Z,99.30
2022-11-16T09:27:28.887Z,98.80
2022-11-16T09:30:31.327Z,98.50
2022-11-16T09:33:34.125Z,98.30
2022-11-16T09:36:35.855Z,98.10
2022-11-16T09:39:37.479Z,97.90
2022-11-16T09:43:29.535Z,97.90
2022-11-16T09:46:38.400Z,97.00
2022-11-16T09:49:55.708Z,97.50
2022-11-16T09:53:17.494Z,98.10
2022-11-16T09:56:25.245Z,97.00
2022-11-16T09:59:43.994Z,97.80
2022-11-16T10:02:52.079Z,98.00
2022-11-16T10:06:03.699Z,97.90
2022-11-16T10:09:05.815Z,97.80
2022-11-16T10:12:10.387Z,97.60
2022-11-16T10:15:30.815Z,97.70
2022-11-16T10:18:57.509Z,97.20
2022-11-16T10:22:34.420Z,96.20
2022-11-16T10:25:44.408Z,96.60
2022-11-16T10:29:07.524Z,97.10
2022-11-16T10:32:28.976Z,96.20
2022-11-16T10:35:44.327Z,96.70
2022-11-16T10:38:46.326Z,95.80
2022-11-16T10:41:51.152Z,96.50
2022-11-16T10:45:10.373Z,96.60
2022-11-16T10:48:31.334Z,95.70
2022-11-16T10:51:32.880Z,96.00
2022-11-16T10:54:34.442Z,96.80
2022-11-16T10:57:58.320Z,96.60
2022-11-16T11:00:59.958Z,95.70
2022-11-16T11:04:27.349Z,96.40
2022-11-16T11:07:42.186Z,95.40
2022-11-16T11:10:43.773Z,96.00
2022-11-16T11:13:45.592Z,96.00
2022-11-16T11:16:52.896Z,96.30
2022-11-16T11:20:00.231Z,96.10
2022-11-16T11:23:15.813Z,96.10
2022-11-16T11:26:57.352Z,95.20
2022-11-16T11:30:00.564Z,95.30
2022-11-16T11:33:12.434Z,96.10
2022-11-16T11:36:20.221Z,95.10
2022-11-16T11:39:21.734Z,96.00
2022-11-16T11:42:23.817Z,96.00
2022-11-16T11:45:32.246Z,95.90
2022-11-16T11:48:38.090Z,95.80
2022-11-16T11:52:01.954Z,95.80
2022-11-16T11:55:08.062Z,95.90
2022-11-16T11:58:17.682Z,95.80
2022-11-16T12:01:49.280Z,95.70
2022-11-16T12:05:39.821Z,95.00
2022-11-16T12:09:21.386Z,94.90
2022-11-16T12:12:37.603Z,94.90
2022-11-16T12:15:49.803Z,95.50
2022-11-16T12:18:57.108Z,94.80
2022-11-16T12:22:35.223Z,95.30
2022-11-16T12:25:55.289Z,94.50
2022-11-16T12:29:11.700Z,94.50
2022-11-16T12:32:39.354Z,95.30
2022-11-16T12:35:48.209Z,94.40
2022-11-16T12:39:04.399Z,94.20
2022-11-16T12:42:40.282Z,94.10
2022-11-16T12:45:49.983Z,94.00
2022-11-16T12:49:24.184Z,94.80
2022-11-16T12:52:57.338Z,93.80
2022-11-16T12:56:22.675Z,93.70
2022-11-16T12:59:33.901Z,93.70
2022-11-16T13:02:54.166Z,94.50
2022-11-16T13:06:06.501Z,94.70
2022-11-16T13:09:13.059Z,94.60
2022-11-16T13:19:30.811Z,94.60
2022-11-16T13:26:43.305Z,94.30
2022-11-16T13:30:17.204Z,94.30
2022-11-16T13:33:32.475Z,94.00
2022-11-16T13:36:43.490Z,94.70
2022-11-16T13:39:56.912Z,94.10
2022-11-16T13:43:10.669Z,93.80
2022-11-16T13:46:27.606Z,93.70
2022-11-16T13:49:48.740Z,94.40
2022-11-16T13:56:16.271Z,94.40
2022-11-16T13:59:27.542Z,94.50
2022-11-16T14:02:40.358Z,93.90
2022-11-16T14:05:42.242Z,93.90
2022-11-16T14:08:45.993Z,94.70
2022-11-16T14:11:47.599Z,94.70
2022-11-16T14:15:17.010Z,94.50
2022-11-16T14:18:30.248Z,93.80
2022-11-16T14:21:44.917Z,94.60
2022-11-16T14:25:14.408Z,94.70
2022-11-16T14:28:38.617Z,93.80
2022-11-16T14:31:52.147Z,93.70
2022-11-16T14:34:56.430Z,94.00
2022-11-16T14:38:21.497Z,94.70
2022-11-16T14:41:25.303Z,94.10
2022-11-16T14:44:30.252Z,94.90
2022-11-16T14:47:35.747Z,94.80
2022-11-16T14:50:40.970Z,94.80
2022-11-16T14:53:49.455Z,94.70
2022-11-16T14:57:02.821Z,94.80
2022-11-16T15:00:25.654Z,94.70
2022-11-16T15:03:31.359Z,94.50
2022-11-16T15:06:42.852Z,95.30
2022-11-16T15:09:50.719Z,94.60
2022-11-16T15:12:54.835Z,97.70
2022-11-16T15:16:19.982Z,95.20
2022-11-16T15:19:22.916Z,95.00
2022-11-16T15:22:27.047Z,95.20
2022-11-16T15:25:40.100Z,95.00
2022-11-16T15:28:44.601Z,94.90
2022-11-16T15:31:51.080Z,95.00
2022-11-16T15:34:54.063Z,95.00
2022-11-16T15:38:14.542Z,95.00
2022-11-16T15:41:18.210Z,95.10
2022-11-16T15:44:22.134Z,95.00
2022-11-16T15:47:24.371Z,95.20
2022-11-16T15:50:26.572Z,95.00
2022-11-16T15:53:37.128Z,95.00
2022-11-16T15:56:38.925Z,95.00
2022-11-16T15:59:40.459Z,95.20
2022-11-16T16:02:44.539Z,95.00
2022-11-16T16:05:46.409Z,94.90
2022-11-16T16:09:04.879Z,94.50
2022-11-16T16:12:17.678Z,94.90
2022-11-16T16:15:31.208Z,95.00
2022-11-16T16:18:41.831Z,94.10
2022-11-16T16:21:45.640Z,94.30
2022-11-16T16:24:47.270Z,94.90
2022-11-16T16:27:48.866Z,94.90
2022-11-16T16:30:53.304Z,95.00
2022-11-16T16:33:55.982Z,94.90
2022-11-16T16:36:57.503Z,95.00
2022-11-16T16:39:59.994Z,94.90
2022-11-16T16:43:01.636Z,95.00
2022-11-16T16:46:03.929Z,94.80
2022-11-16T16:49:05.499Z,95.00
2022-11-16T16:52:07.534Z,94.80
2022-11-16T16:55:09.251Z,94.90
2022-11-16T16:58:13.143Z,94.90
2022-11-16T17:01:14.790Z,95.20
2022-11-16T17:04:16.597Z,95.10
2022-11-16T17:07:18.315Z,95.20
2022-11-16T17:10:19.942Z,95.30
2022-11-16T17:13:21.482Z,95.00
2022-11-16T17:16:23.174Z,95.10
2022-11-16T17:19:24.764Z,95.20
2022-11-16T17:22:26.286Z,95.20
2022-11-16T17:25:27.897Z,95.80
2022-11-16T17:28:29.507Z,95.20
2022-11-16T17:31:31.178Z,95.30
2022-11-16T17:34:32.746Z,95.30
2022-11-16T17:37:34.292Z,95.20
2022-11-16T17:40:35.824Z,95.50
2022-11-16T17:43:37.575Z,95.60
2022-11-16T17:46:40.358Z,95.60
2022-11-16T17:49:42.025Z,95.50
2022-11-16T17:52:43.566Z,95.80
2022-11-16T17:55:45.110Z,95.50
2022-11-16T17:58:47.207Z,95.50
2022-11-16T18:01:49.794Z,95.40
2022-11-16T18:04:51.645Z,95.60
2022-11-16T18:07:53.231Z,95.50
2022-11-16T18:10:54.756Z,95.50
2022-11-16T18:13:58.883Z,95.50
2022-11-16T18:17:00.457Z,95.40
2022-11-16T18:20:04.582Z,95.50
2022-11-16T18:23:06.147Z,95.50
2022-11-16T18:26:09.487Z,95.50
2022-11-16T18:29:12.158Z,95.60
2022-11-16T18:32:13.713Z,96.20
2022-11-16T18:35:15.997Z,95.40
2022-11-16T18:38:17.539Z,95.70
2022-11-16T18:41:22.608Z,95.70
2022-11-16T18:44:24.199Z,95.60
2022-11-16T18:47:25.752Z,95.60
2022-11-16T18:50:27.355Z,95.50
2022-11-16T18:53:30.349Z,95.80
2022-11-16T18:56:31.900Z,95.70
2022-11-16T18:59:33.438Z,95.70
2022-11-16T19:02:35.603Z,95.70
2022-11-16T19:05:37.119Z,95.80
2022-11-16T19:08:40.367Z,95.90
2022-11-16T19:11:41.898Z,95.90
2022-11-16T19:14:43.503Z,95.90
2022-11-16T19:18:06.689Z,95.80
2022-11-16T19:21:09.370Z,96.20
2022-11-16T19:24:10.944Z,95.80
2022-11-16T19:27:12.544Z,95.80
2022-11-16T19:30:14.224Z,95.80
2022-11-16T19:33:15.791Z,95.70
2022-11-16T19:36:19.227Z,95.70
2022-11-16T19:39:20.778Z,95.60
2022-11-16T19:42:22.409Z,95.60
2022-11-16T19:45:26.263Z,95.60
2022-11-16T19:48:27.754Z,96.00
2022-11-16T19:51:33.462Z,95.60
2022-11-16T19:54:36.203Z,95.70
2022-11-16T19:57:37.763Z,95.50
2022-11-16T20:00:39.321Z,96.00
2022-11-16T20:03:42.097Z,95.80
2022-11-16T20:06:43.683Z,95.70
2022-11-16T20:09:49.285Z,95.90
2022-11-16T20:12:54.771Z,95.50
2022-11-16T20:15:56.474Z,95.80
2022-11-16T20:18:58.602Z,96.30
2022-11-16T20:22:00.205Z,95.40
2022-11-16T20:25:01.850Z,95.40
2022-11-16T20:28:06.001Z,95.60
2022-11-16T20:31:12.754Z,95.70
2022-11-16T20:34:19.091Z,94.90
2022-11-16T20:37:20.711Z,95.50
2022-11-16T20:40:22.269Z,95.60
2022-11-16T20:43:23.894Z,95.60
2022-11-16T20:46:27.381Z,95.50
2022-11-16T20:49:29.079Z,95.70
2022-11-16T20:52:33.652Z,95.60
2022-11-16T20:55:35.910Z,95.80
2022-11-16T20:58:38.272Z,95.60
2022-11-16T21:01:41.327Z,95.80
2022-11-16T21:04:42.926Z,95.70
2022-11-16T21:07:44.467Z,95.60
2022-11-16T21:10:46.299Z,95.70
2022-11-16T21:14:07.191Z,95.70
2022-11-16T21:17:09.193Z,96.20
2022-11-16T21:20:26.885Z,95.80
2022-11-16T21:23:41.069Z,96.10
2022-11-16T21:26:42.658Z,95.70
2022-11-16T21:29:44.281Z,95.60
2022-11-16T21:32:45.898Z,95.60
2022-11-16T21:35:47.419Z,95.70
2022-11-16T21:38:49.821Z,95.70
2022-11-16T21:41:51.415Z,95.70
2022-11-16T21:44:52.970Z,95.80
2022-11-16T21:47:54.602Z,95.60
2022-11-16T21:51:04.051Z,95.60
2022-11-16T21:54:05.706Z,95.00
2022-11-16T21:57:07.295Z,95.70
2022-11-16T22:00:13.575Z,95.70
2022-11-16T22:03:17.108Z,95.50
2022-11-16T22:06:37.531Z,95.80
2022-11-16T22:09:39.377Z,95.10
2022-11-16T22:12:41.684Z,95.80
2022-11-16T22:15:47.475Z,95.70
2022-11-16T22:18:49.523Z,95.80
2022-11-16T22:21:51.025Z,95.70
2022-11-16T22:24:52.806Z,95.80
2022-11-16T22:31:16.342Z,95.50
2022-11-16T22:34:17.946Z,95.60
2022-11-16T22:37:19.531Z,95.70
2022-11-16T22:40:21.075Z,95.60
2022-11-16T22:43:26.155Z,96.20
2022-11-16T22:46:27.807Z,95.60
2022-11-16T22:49:29.381Z,95.80
2022-11-16T22:52:30.906Z,95.50
2022-11-16T22:55:36.139Z,95.50
2022-11-16T22:58:38.682Z,95.60
2022-11-16T23:01:43.583Z,95.50
2022-11-16T23:04:45.120Z,95.70
2022-11-16T23:07:46.724Z,95.60
2022-11-16T23:11:07.224Z,95.50
2022-11-16T23:14:32.322Z,94.80
2022-11-16T23:17:33.984Z,95.60
2022-11-16T23:20:54.003Z,95.40
2022-11-16T23:24:14.486Z,95.10
2022-11-16T23:27:31.287Z,94.80
2022-11-16T23:30:35.670Z,95.00
2022-11-16T23:33:47.640Z,95.90
2022-11-16T23:36:49.289Z,95.00
2022-11-16T23:39:50.977Z,95.90
2022-11-16T23:43:12.586Z,95.80
2022-11-16T23:46:14.090Z,95.90
2022-11-16T23:49:15.648Z,95.90
2022-11-16T23:52:17.299Z,96.00
2022-11-16T23:55:18.846Z,96.10
2022-11-16T23:58:20.395Z,96.20
